Time;durP1;ratioP1;P1;durP2;ratioP2;P2;SDS_P1;SDS_P2;PMS_P1;PMS_P2;Temp;Humidity;BMP_temperature;BMP_pressure;BME280_temperature;BME280_humidity;BME280_pressure;Samples;Min_cycle;Max_cycle;Signal;HPM_P1;HPM_P2
2023/04/10 00:00:55;;;;;;;9.05;4.45;;;;;;;10.73;64.24;99936.13;4975676;28;20106;-55
2023/04/10 00:03:23;;;;;;;7.68;4.43;;;;;;;10.76;64.42;99921.44;4973724;28;20109;-50
2023/04/10 00:05:50;;;;;;;11.98;5.15;;;;;;;10.71;65.46;99912.81;4976663;28;20047;-51
2023/04/10 00:08:16;;;;;;;9.65;3.83;;;;;;;10.63;65.16;99923.22;4961733;28;20494;-53
2023/04/10 00:10:43;;;;;;;8.52;3.58;;;;;;;10.61;65.96;99921.53;4972650;28;20501;-53
2023/04/10 00:13:10;;;;;;;8.93;5.13;;;;;;;10.62;65.92;99920.66;4981221;28;20042;-51
2023/04/10 00:15:36;;;;;;;10.07;5.50;;;;;;;10.58;66.04;99922.41;4980062;28;20070;-50
2023/04/10 00:18:03;;;;;;;14.82;7.25;;;;;;;10.61;65.69;99919.78;4975948;28;20054;-53
2023/04/10 00:20:30;;;;;;;11.80;5.75;;;;;;;10.62;65.15;99920.66;4978816;28;20051;-50
2023/04/10 00:22:56;;;;;;;14.15;7.18;;;;;;;10.57;66.00;99909.47;4972007;28;20189;-51
2023/04/10 00:25:23;;;;;;;8.00;4.65;;;;;;;10.46;67.49;99905.19;4977863;28;20070;-48
2023/04/10 00:27:49;;;;;;;12.98;5.25;;;;;;;10.41;68.05;99899.16;4967812;28;20081;-49
2023/04/10 00:30:16;;;;;;;11.02;4.68;;;;;;;10.36;67.66;99891.38;4978931;28;20473;-49
2023/04/10 00:32:43;;;;;;;10.27;5.60;;;;;;;10.39;67.71;99885.31;4973085;28;20460;-51
2023/04/10 00:35:09;;;;;;;8.68;4.63;;;;;;;10.38;67.89;99889.66;4966524;28;20058;-53
2023/04/10 00:37:36;;;;;;;11.25;5.18;;;;;;;10.31;68.55;99876.75;4975948;28;20130;-49
2023/04/10 00:40:05;;;;;;;13.57;5.10;;;;;;;10.29;67.87;99869.84;4974590;28;20093;-56
2023/04/10 00:42:32;;;;;;;10.88;5.00;;;;;;;10.28;68.40;99862.97;4970134;28;20508;-48
2023/04/10 00:44:59;;;;;;;15.23;7.07;;;;;;;10.33;68.56;99864.66;4974060;28;20090;-53
2023/04/10 00:47:26;;;;;;;8.98;4.90;;;;;;;10.27;68.50;99856.03;4967334;28;20051;-54
2023/04/10 00:49:53;;;;;;;11.02;6.03;;;;;;;10.20;68.85;99849.16;4974952;28;20085;-52
2023/04/10 00:52:20;;;;;;;10.65;6.22;;;;;;;10.23;69.05;99859.50;4980321;28;20050;-53
2023/04/10 00:54:47;;;;;;;11.82;6.93;;;;;;;10.19;69.05;99847.44;4970151;28;20050;-51
2023/04/10 00:57:13;;;;;;;9.18;5.15;;;;;;;10.23;68.75;99843.97;4970180;28;20534;-52
2023/04/10 00:59:40;;;;;;;13.60;4.65;;;;;;;10.21;69.53;99840.56;4980122;28;20450;-51
2023/04/10 01:02:07;;;;;;;14.35;6.80;;;;;;;10.21;69.06;99832.78;4972742;28;20132;-50
2023/04/10 01:04:34;;;;;;;10.98;6.55;;;;;;;10.15;69.38;99833.69;4969121;28;20360;-54
2023/04/10 01:09:48;;;;;;;10.82;5.45;;;;;;;10.16;69.13;99824.16;5049342;28;20394;-50
2023/04/10 01:15:19;;;;;;;12.18;4.80;;;;;;;10.22;69.60;99826.75;5047472;28;20440;-49
2023/04/10 01:18:10;;;;;;;15.90;5.72;;;;;;;10.16;70.25;99822.44;5029348;28;20490;-51
2023/04/10 01:20:39;;;;;;;12.60;3.88;;;;;;;10.19;69.31;99826.75;5026874;28;20132;-50
2023/04/10 01:28:56;;;;;;;15.80;7.05;;;;;;;10.08;70.89;99808.69;5026372;28;20429;-46
2023/04/10 01:34:17;;;;;;;12.60;4.85;;;;;;;10.13;71.35;99800.88;5045964;27;20401;-50
2023/04/10 01:36:50;;;;;;;15.07;5.05;;;;;;;10.13;70.41;99806.06;5020580;28;20061;-50
2023/04/10 01:39:19;;;;;;;9.55;3.85;;;;;;;10.08;71.42;99807.81;5052998;28;20057;-48
2023/04/10 01:41:49;;;;;;;13.57;4.78;;;;;;;10.12;70.79;99806.94;5021164;28;20057;-52
2023/04/10 01:44:20;;;;;;;16.77;6.15;;;;;;;10.09;71.73;99796.59;5019407;28;20049;-47
2023/04/10 01:46:48;;;;;;;14.02;5.22;;;;;;;10.10;71.35;99795.75;5020454;28;20072;-53
2023/04/10 01:49:16;;;;;;;13.63;5.22;;;;;;;10.06;71.57;99791.47;5022145;28;20091;-49
2023/04/10 01:51:45;;;;;;;11.23;4.90;;;;;;;9.99;72.81;99781.13;5018196;28;20056;-47
2023/04/10 01:54:12;;;;;;;14.45;5.47;;;;;;;10.00;72.89;99779.41;5022956;28;20049;-54
2023/04/10 01:56:40;;;;;;;10.45;3.45;;;;;;;9.93;74.21;99760.44;4998237;28;20141;-52
2023/04/10 01:59:07;;;;;;;13.10;4.78;;;;;;;9.90;74.00;99763.91;4999930;28;20097;-53
2023/04/10 02:01:34;;;;;;;11.27;4.65;;;;;;;9.84;74.28;99757.91;4996212;28;20549;-51
2023/04/10 02:04:01;;;;;;;10.50;4.03;;;;;;;9.82;74.24;99754.47;5001139;28;20052;-50
2023/04/10 02:09:22;;;;;;;15.13;5.85;;;;;;;9.82;75.17;99738.94;5060865;27;20386;-53
2023/04/10 02:11:57;;;;;;;12.38;4.45;;;;;;;9.79;75.33;99733.81;5018583;28;20103;-49
2023/04/10 02:14:28;;;;;;;9.98;3.95;;;;;;;9.80;75.36;99735.50;5018549;28;20080;-47
2023/04/10 02:16:55;;;;;;;13.93;4.53;;;;;;;9.76;75.46;99725.19;5029175;28;20049;-55
2023/04/10 02:19:25;;;;;;;6.97;3.38;;;;;;;9.82;75.55;99734.63;5018535;28;20505;-52
2023/04/10 02:21:52;;;;;;;;;;;;;;;9.71;76.95;99721.75;5019154;28;20037;-49
2023/04/10 02:24:20;;;;;;;8.07;4.05;;;;;;;9.73;76.33;99730.34;5021675;28;19965;-51
2023/04/10 02:26:48;;;;;;;10.65;4.60;;;;;;;9.79;76.57;99718.28;5018718;28;20046;-50
2023/04/10 02:29:16;;;;;;;12.10;3.58;;;;;;;9.80;75.62;99725.16;5018359;28;20042;-50
2023/04/10 02:31:44;;;;;;;15.90;6.53;;;;;;;9.80;76.46;99722.59;5020218;28;20042;-49
2023/04/10 02:34:11;;;;;;;13.85;6.03;;;;;;;9.81;76.18;99727.75;5016463;28;20046;-49
2023/04/10 02:36:38;;;;;;;9.75;4.82;;;;;;;9.76;76.61;99717.41;5050980;28;20129;-50
2023/04/10 02:39:05;;;;;;;13.45;4.55;;;;;;;9.77;76.83;99708.78;5052046;28;20502;-50
2023/04/10 02:41:32;;;;;;;9.77;3.88;;;;;;;9.81;76.95;99711.34;5021061;28;20054;-54
2023/04/10 02:43:59;;;;;;;11.70;3.85;;;;;;;9.81;76.70;99695.84;5023562;28;20291;-53
2023/04/10 02:46:25;;;;;;;10.88;4.75;;;;;;;9.73;77.90;99704.50;5013665;28;20049;-52
2023/04/10 02:48:52;;;;;;;14.77;6.75;;;;;;;9.82;76.44;99703.59;5019061;28;20080;-49
2023/04/10 02:51:19;;;;;;;12.00;5.03;;;;;;;9.79;76.97;99697.59;5015072;28;20133;-48
2023/04/10 02:53:47;;;;;;;16.67;7.18;;;;;;;9.80;77.12;99705.34;5022772;28;20080;-52
2023/04/10 02:56:13;;;;;;;13.07;5.18;;;;;;;9.77;77.47;99698.44;5020749;28;20104;-51
2023/04/10 02:58:44;;;;;;;14.07;5.88;;;;;;;9.75;77.88;99692.44;5019262;28;20072;-51
2023/04/10 03:01:12;;;;;;;13.77;5.40;;;;;;;9.79;78.04;99693.25;5016627;28;20045;-50
2023/04/10 03:03:38;;;;;;;12.43;5.50;;;;;;;9.81;77.07;99693.25;5018724;28;20062;-51
2023/04/10 03:06:08;;;;;;;9.43;4.05;;;;;;;9.76;78.10;99676.03;5017698;28;20673;-49
2023/04/10 03:08:34;;;;;;;10.65;4.32;;;;;;;9.78;78.12;99676.03;5018007;28;20079;-48
2023/04/10 03:11:01;;;;;;;11.65;4.97;;;;;;;9.78;78.67;99665.69;5021186;28;20050;-50
2023/04/10 03:13:28;;;;;;;11.43;4.57;;;;;;;9.79;78.20;99661.38;5020310;28;20081;-49
2023/04/10 03:15:54;;;;;;;13.07;5.15;;;;;;;9.82;77.72;99645.81;5019566;28;20133;-48
2023/04/10 03:18:21;;;;;;;14.05;5.43;;;;;;;9.80;78.14;99642.41;5014978;28;20068;-50
2023/04/10 03:20:48;;;;;;;12.20;5.97;;;;;;;9.82;78.32;99632.88;5006545;28;20104;-47
2023/04/10 03:23:14;;;;;;;15.82;5.00;;;;;;;9.81;78.19;99623.41;5001818;28;20053;-47
2023/04/10 03:25:42;;;;;;;11.68;4.47;;;;;;;9.83;78.33;99611.34;4996120;28;20499;-55
2023/04/10 03:28:08;;;;;;;11.00;5.15;;;;;;;9.79;78.70;99604.47;5006613;28;20046;-49
2023/04/10 03:30:35;;;;;;;14.82;4.28;;;;;;;9.75;79.32;99591.56;5002883;28;20061;-56
2023/04/10 03:33:02;;;;;;;8.75;3.83;;;;;;;9.73;79.66;99595.03;5008968;28;20137;-52
2023/04/10 03:35:29;;;;;;;12.90;5.10;;;;;;;9.69;80.22;99608.84;5001693;28;20440;-51
2023/04/10 03:37:56;;;;;;;9.95;4.35;;;;;;;9.77;78.98;99615.69;5005370;28;20494;-53
2023/04/10 03:40:23;;;;;;;13.95;4.82;;;;;;;9.81;78.68;99610.50;5004667;28;20046;-48
2023/04/10 03:42:49;;;;;;;16.90;6.13;;;;;;;9.82;78.97;99614.78;5006628;28;20053;-49
2023/04/10 03:45:16;;;;;;;14.98;5.75;;;;;;;9.83;78.98;99611.34;4994806;28;20074;-45
2023/04/10 03:47:42;;;;;;;17.52;6.25;;;;;;;9.82;79.10;99609.63;5003666;28;20038;-50
2023/04/10 03:50:09;;;;;;;9.07;3.75;;;;;;;9.84;79.55;99613.94;5000006;28;20428;-51
2023/04/10 03:52:36;;;;;;;9.48;4.68;;;;;;;9.88;79.26;99614.75;5004465;28;20049;-46
2023/04/10 03:55:03;;;;;;;13.48;5.47;;;;;;;9.85;78.99;99607.88;5004939;28;20798;-47
2023/04/10 03:57:29;;;;;;;16.05;6.20;;;;;;;9.90;78.94;99607.84;5001825;28;20100;-54
2023/04/10 03:59:56;;;;;;;19.75;7.35;;;;;;;9.94;78.94;99609.56;5001107;28;20042;-54
2023/04/10 04:02:23;;;;;;;8.70;4.32;;;;;;;9.95;78.70;99605.22;5007698;28;20205;-49
2023/04/10 04:04:49;;;;;;;16.08;7.13;;;;;;;9.95;78.73;99606.09;5000557;28;20054;-54
2023/04/10 04:07:16;;;;;;;13.50;4.32;;;;;;;9.94;78.87;99588.84;5000853;28;20057;-51
2023/04/10 04:09:43;;;;;;;14.18;5.35;;;;;;;9.95;79.71;99587.97;5002263;28;20043;-49
2023/04/10 04:12:09;;;;;;;10.68;4.40;;;;;;;9.92;80.05;99577.66;5006985;28;20139;-49
2023/04/10 04:14:36;;;;;;;16.80;4.35;;;;;;;9.93;80.03;99569.00;5005147;28;20146;-51
2023/04/10 04:17:03;;;;;;;14.18;6.32;;;;;;;9.98;79.75;99563.81;5006751;28;20716;-50
2023/04/10 04:19:29;;;;;;;13.55;5.13;;;;;;;9.99;79.96;99560.34;5008798;28;20109;-50
2023/04/10 04:21:56;;;;;;;17.23;6.32;;;;;;;9.98;79.54;99554.31;5011811;28;20049;-52
2023/04/10 04:24:23;;;;;;;10.25;3.22;;;;;;;10.05;79.31;99551.66;4998974;28;21529;-50
2023/04/10 04:26:50;;;;;;;8.50;3.33;;;;;;;10.05;79.84;99549.06;5003255;28;20057;-47
2023/04/10 04:29:16;;;;;;;15.65;4.88;;;;;;;10.00;80.31;99537.03;5006344;28;20080;-52
2023/04/10 04:31:43;;;;;;;12.68;5.78;;;;;;;10.05;80.35;99537.00;5005486;28;20073;-49
2023/04/10 04:34:10;;;;;;;12.43;4.93;;;;;;;10.07;79.93;99521.47;5001935;28;20053;-49
2023/04/10 04:36:36;;;;;;;10.25;4.63;;;;;;;10.08;80.64;99533.53;5003946;28;20054;-51
2023/04/10 04:39:03;;;;;;;15.25;6.53;;;;;;;10.09;80.59;99523.16;5003815;28;20042;-49
2023/04/10 04:41:31;;;;;;;14.27;5.88;;;;;;;10.14;80.27;99528.31;4999310;28;20053;-50
2023/04/10 04:43:59;;;;;;;12.15;5.35;;;;;;;10.16;79.87;99523.97;5003432;28;20045;-50
2023/04/10 04:46:26;;;;;;;12.93;4.28;;;;;;;10.18;80.25;99514.47;4998782;28;20082;-51
2023/04/10 04:48:53;;;;;;;11.23;4.63;;;;;;;10.18;79.98;99523.94;5001349;28;20046;-52
2023/04/10 04:51:20;;;;;;;7.15;3.72;;;;;;;10.13;81.42;99521.41;5008902;28;20434;-50
2023/04/10 04:53:46;;;;;;;10.05;4.90;;;;;;;10.17;80.74;99512.75;5011775;28;20547;-50
2023/04/10 04:56:13;;;;;;;11.25;4.10;;;;;;;10.12;81.50;99506.75;4998588;28;20112;-54
2023/04/10 04:58:39;;;;;;;11.88;4.38;;;;;;;10.17;80.78;99502.41;5004593;28;20038;-50
2023/04/10 05:01:07;;;;;;;6.68;3.33;;;;;;;10.19;80.41;99497.19;5004934;28;20054;-53
2023/04/10 05:03:33;;;;;;;7.82;3.50;;;;;;;10.21;81.25;99498.91;5002145;28;20490;-49
2023/04/10 05:06:00;;;;;;;8.27;3.55;;;;;;;10.21;81.22;99493.75;5000876;28;20065;-48
2023/04/10 05:08:27;;;;;;;10.25;4.38;;;;;;;10.26;81.31;99499.72;5006622;28;20482;-48
2023/04/10 05:10:53;;;;;;;7.40;3.17;;;;;;;10.25;80.78;99495.44;4999124;28;20077;-49
2023/04/10 05:13:20;;;;;;;7.00;3.05;;;;;;;10.24;80.95;99493.69;5007231;28;20553;-46
2023/04/10 05:15:47;;;;;;;8.80;3.53;;;;;;;10.32;80.44;99487.56;5000396;28;20074;-47
2023/04/10 05:18:18;;;;;;;8.38;3.63;;;;;;;10.26;81.14;99486.78;4993820;28;20494;-50
2023/04/10 05:20:46;;;;;;;6.10;2.20;;;;;;;10.28;80.64;99484.19;5002142;28;20042;-53
2023/04/10 05:23:12;;;;;;;9.25;3.47;;;;;;;10.31;80.52;99488.47;4998794;28;20049;-47
2023/04/10 05:25:40;;;;;;;7.03;2.97;;;;;;;10.28;81.38;99485.03;5003553;28;20541;-51
2023/04/10 05:28:06;;;;;;;5.25;2.97;;;;;;;10.29;81.66;99485.88;5000267;28;20046;-51
2023/04/10 05:30:33;;;;;;;6.95;3.10;;;;;;;10.33;81.35;99489.31;4997538;28;20678;-54
2023/04/10 05:33:00;;;;;;;5.32;2.28;;;;;;;10.35;81.65;99484.97;4992586;28;20062;-55
2023/04/10 05:35:26;;;;;;;4.13;1.42;;;;;;;10.34;81.71;99478.91;5002362;28;20782;-49
2023/04/10 05:37:53;;;;;;;6.50;2.20;;;;;;;10.37;81.03;99478.88;5005528;28;20074;-51
2023/04/10 05:40:19;;;;;;;5.35;2.53;;;;;;;10.40;81.42;99472.81;5003240;28;20445;-52
2023/04/10 05:42:46;;;;;;;2.88;1.42;;;;;;;10.42;81.53;99471.06;5003183;28;20383;-48
2023/04/10 05:45:13;;;;;;;5.38;2.10;;;;;;;10.44;81.25;99465.88;4993622;28;20080;-52
2023/04/10 05:47:40;;;;;;;6.20;2.00;;;;;;;10.44;81.75;99463.28;5001545;28;20081;-53
2023/04/10 05:50:07;;;;;;;15.70;2.65;;;;;;;10.47;81.14;99469.31;4999548;28;20158;-56
2023/04/10 05:52:34;;;;;;;4.18;2.05;;;;;;;10.49;80.51;99462.41;5003068;28;20146;-49
2023/04/10 05:55:01;;;;;;;4.63;1.85;;;;;;;10.49;80.97;99466.72;5001568;28;20050;-49
2023/04/10 05:57:28;;;;;;;5.03;1.63;;;;;;;10.50;80.93;99456.34;5005764;28;20073;-53
2023/04/10 05:59:55;;;;;;;2.45;1.63;;;;;;;10.52;81.50;99452.00;4999548;28;20100;-54
2023/04/10 06:02:21;;;;;;;4.55;2.00;;;;;;;10.54;81.66;99455.44;5000985;28;20089;-54
2023/04/10 06:04:48;;;;;;;5.28;2.55;;;;;;;10.57;80.71;99451.94;5005081;28;20084;-48
2023/04/10 06:07:15;;;;;;;5.07;2.38;;;;;;;10.59;81.44;99451.91;5001403;28;20049;-55
2023/04/10 06:09:42;;;;;;;3.67;2.35;;;;;;;10.60;81.74;99445.88;5002435;28;20108;-53
2023/04/10 06:12:08;;;;;;;5.18;2.28;;;;;;;10.65;80.80;99446.69;5000428;28;20086;-51
2023/04/10 06:14:35;;;;;;;3.53;1.70;;;;;;;10.60;81.69;99443.28;5000097;28;20081;-53
2023/04/10 06:17:01;;;;;;;5.20;2.80;;;;;;;10.62;81.39;99424.28;4999008;28;20093;-53
2023/04/10 06:19:28;;;;;;;3.50;2.03;;;;;;;10.63;81.62;99443.22;4997002;28;20081;-50
2023/04/10 06:21:55;;;;;;;4.80;2.45;;;;;;;10.65;81.19;99442.38;5002445;28;20452;-53
2023/04/10 06:24:21;;;;;;;3.33;1.98;;;;;;;10.67;80.65;99435.41;4999666;28;20096;-50
2023/04/10 06:26:48;;;;;;;3.80;1.92;;;;;;;10.68;81.33;99436.28;4998451;28;20054;-51
2023/04/10 06:29:15;;;;;;;4.43;2.35;;;;;;;10.70;80.99;99429.34;5001282;28;20097;-49
2023/04/10 06:31:43;;;;;;;3.55;1.77;;;;;;;10.70;80.89;99424.16;4997988;28;20109;-50
2023/04/10 06:34:10;;;;;;;3.95;2.15;;;;;;;10.73;81.16;99428.44;4999705;28;20045;-49
2023/04/10 06:36:36;;;;;;;3.42;2.08;;;;;;;10.76;80.37;99428.38;4999935;28;20057;-51
2023/04/10 06:39:03;;;;;;;3.55;1.85;;;;;;;10.78;80.18;99427.50;5000737;28;20474;-56
2023/04/10 06:41:30;;;;;;;5.20;2.83;;;;;;;10.84;80.68;99425.72;5001322;28;20102;-55
2023/04/10 06:43:56;;;;;;;4.05;2.13;;;;;;;10.83;80.91;99424.84;5003444;28;20562;-52
2023/04/10 06:46:23;;;;;;;2.83;1.48;;;;;;;10.84;79.99;99421.38;5002027;28;20620;-50
2023/04/10 06:48:49;;;;;;;3.20;1.50;;;;;;;10.85;80.93;99412.75;4999260;28;20586;-53
2023/04/10 06:51:16;;;;;;;2.70;1.20;;;;;;;10.83;80.50;99408.44;5001874;28;20065;-50
2023/04/10 06:53:42;;;;;;;2.45;2.05;;;;;;;10.89;80.15;99409.22;4999749;28;20042;-49
2023/04/10 06:56:09;;;;;;;4.82;2.42;;;;;;;10.93;79.76;99394.47;5008636;28;20073;-50
2023/04/10 06:58:36;;;;;;;9.40;1.23;;;;;;;10.95;79.72;99392.75;5005226;28;20054;-54
2023/04/10 07:01:03;;;;;;;2.47;0.95;;;;;;;10.96;80.53;99394.44;5002804;28;20053;-52
2023/04/10 07:03:31;;;;;;;1.58;0.82;;;;;;;10.99;80.49;99394.41;5007345;28;20506;-57
2023/04/10 07:05:58;;;;;;;2.63;1.65;;;;;;;11.01;79.33;99392.63;5005586;28;20061;-49
2023/04/10 07:08:25;;;;;;;2.13;1.17;;;;;;;11.03;80.03;99385.69;5004749;28;20097;-51
2023/04/10 07:10:52;;;;;;;2.78;1.15;;;;;;;11.05;79.81;99389.09;5005822;28;20042;-53
2023/04/10 07:13:18;;;;;;;2.05;1.10;;;;;;;11.08;80.70;99377.00;5008812;28;20124;-50
2023/04/10 07:15:45;;;;;;;1.27;0.68;;;;;;;11.09;79.43;99378.69;5004691;28;20475;-51
2023/04/10 07:18:12;;;;;;;2.03;1.00;;;;;;;11.11;79.89;99376.94;5008884;28;20445;-52
2023/04/10 07:20:38;;;;;;;2.13;0.77;;;;;;;11.10;80.00;99380.41;5004341;28;20089;-49
2023/04/10 07:23:05;;;;;;;1.15;0.52;;;;;;;11.12;79.46;99376.06;5003362;28;20077;-49
2023/04/10 07:25:33;;;;;;;0.90;0.43;;;;;;;11.15;79.85;99373.44;5006133;28;20050;-52
2023/04/10 07:27:59;;;;;;;2.15;0.60;;;;;;;11.16;79.41;99369.94;5000470;28;20620;-48
2023/04/10 07:30:26;;;;;;;2.38;1.08;;;;;;;11.18;80.08;99363.03;5000447;28;20070;-48
2023/04/10 07:32:52;;;;;;;1.10;0.60;;;;;;;11.18;79.02;99360.44;5007905;28;20107;-52
2023/04/10 07:35:19;;;;;;;1.00;0.75;;;;;;;11.19;79.74;99375.09;5005044;28;20129;-45
2023/04/10 07:37:50;;;;;;;2.63;1.05;;;;;;;11.20;79.66;99369.03;5006720;28;20545;-54
2023/04/10 07:40:17;;;;;;;2.10;0.95;;;;;;;11.17;79.57;99369.06;4998968;28;20088;-50
2023/04/10 07:42:43;;;;;;;2.85;1.77;;;;;;;11.21;78.92;99362.09;5003803;28;20155;-52
2023/04/10 07:45:11;;;;;;;4.25;2.38;;;;;;;11.19;79.45;99360.38;4997770;28;20100;-52
2023/04/10 07:47:37;;;;;;;4.22;2.47;;;;;;;11.20;79.58;99356.06;4999620;28;20111;-48
2023/04/10 07:50:05;;;;;;;2.28;1.40;;;;;;;11.21;79.44;99355.16;4998904;28;20459;-56
2023/04/10 07:52:31;;;;;;;3.63;1.38;;;;;;;11.22;79.44;99338.75;5002701;28;20049;-49
2023/04/10 07:55:01;;;;;;;1.70;1.15;;;;;;;11.25;79.20;99333.50;5001638;28;20080;-48
2023/04/10 07:57:28;;;;;;;;;;;;;;;11.18;80.04;99331.91;4999727;28;20147;-51
2023/04/10 07:59:55;;;;;;;1.77;1.38;;;;;;;11.26;80.23;99326.59;5007806;28;19960;-55
2023/04/10 08:02:22;;;;;;;2.67;1.13;;;;;;;11.30;78.88;99326.50;5001605;28;20092;-53
2023/04/10 08:04:49;;;;;;;1.67;0.93;;;;;;;11.34;78.38;99321.28;5007179;28;20437;-50
2023/04/10 08:07:19;;;;;;;0.90;0.30;;;;;;;11.36;79.74;99316.91;5002001;28;20045;-51
2023/04/10 08:09:46;;;;;;;0.98;0.68;;;;;;;11.35;79.99;99318.63;5028388;28;20081;-51
2023/04/10 08:12:13;;;;;;;0.47;0.40;;;;;;;11.38;78.47;99322.94;5032834;28;20460;-52
2023/04/10 08:14:39;;;;;;;0.40;0.22;;;;;;;11.36;79.05;99314.31;5029453;28;20048;-52
2023/04/10 08:17:13;;;;;;;0.60;0.38;;;;;;;11.36;79.68;99303.94;5008120;28;20498;-50
2023/04/10 08:19:40;;;;;;;0.55;0.47;;;;;;;11.36;79.40;99298.75;5004778;28;20085;-52
2023/04/10 08:22:08;;;;;;;0.90;0.63;;;;;;;11.34;79.77;99297.94;5014057;28;20049;-51
2023/04/10 08:24:34;;;;;;;0.77;0.63;;;;;;;11.34;78.74;99295.34;5007472;28;20041;-47
2023/04/10 08:27:01;;;;;;;0.60;0.60;;;;;;;11.28;79.00;99281.59;5017461;28;20106;-53
2023/04/10 08:29:28;;;;;;;0.70;0.30;;;;;;;11.34;79.22;99279.81;5021665;28;20054;-49
2023/04/10 08:31:55;;;;;;;0.47;0.43;;;;;;;11.38;79.04;99291.81;5011406;28;20056;-54
2023/04/10 08:34:23;;;;;;;0.65;0.30;;;;;;;11.36;79.02;99283.19;5006014;28;20073;-53
2023/04/10 08:36:49;;;;;;;2.15;0.88;;;;;;;11.40;79.44;99295.22;5010878;28;20185;-50
2023/04/10 08:39:17;;;;;;;2.08;0.60;;;;;;;11.42;79.15;99283.09;5009570;28;20121;-53
2023/04/10 08:41:44;;;;;;;1.10;0.63;;;;;;;11.41;78.98;99290.00;5022523;28;20045;-51
2023/04/10 08:44:10;;;;;;;3.08;1.40;;;;;;;11.45;79.38;99288.22;5020235;28;20114;-53
2023/04/10 08:46:42;;;;;;;1.30;0.80;;;;;;;11.49;78.80;99291.63;5022905;28;20072;-55
2023/04/10 08:49:14;;;;;;;0.88;0.85;;;;;;;11.50;78.88;99281.22;4995975;28;20045;-58
2023/04/10 08:51:45;;;;;;;0.57;0.35;;;;;;;11.52;78.74;99284.63;5011790;28;20091;-51
2023/04/10 08:54:22;;;;;;;0.73;0.63;;;;;;;11.51;77.92;99277.72;5022308;28;20064;-50
2023/04/10 08:56:50;;;;;;;1.20;0.88;;;;;;;11.54;78.50;99277.69;5004727;28;20065;-54
2023/04/10 08:59:17;;;;;;;1.42;1.25;;;;;;;11.57;78.72;99280.22;5010360;28;20045;-53
2023/04/10 09:01:45;;;;;;;0.77;0.50;;;;;;;11.59;78.93;99274.13;5019218;28;20080;-56
2023/04/10 09:04:13;;;;;;;0.73;0.73;;;;;;;11.57;79.10;99275.03;5016170;28;20050;-56
2023/04/10 09:06:39;;;;;;;1.23;1.23;;;;;;;11.61;79.08;99259.38;5003451;28;20077;-56
2023/04/10 09:09:06;;;;;;;1.33;0.88;;;;;;;11.63;77.65;99255.03;5003322;28;20124;-48
2023/04/10 09:14:31;;;;;;;2.15;2.00;;;;;;;11.67;78.56;99244.59;5067246;27;20414;-50
2023/04/10 09:19:55;;;;;;;1.27;0.45;;;;;;;11.75;77.94;99244.41;5067701;27;20399;-49
2023/04/10 09:22:31;;;;;;;0.40;0.20;;;;;;;11.79;77.82;99246.06;5044748;28;20132;-51
2023/04/10 09:24:58;;;;;;;0.47;0.40;;;;;;;11.83;78.35;99245.09;5048531;28;20052;-49
2023/04/10 09:27:30;;;;;;;1.20;0.82;;;;;;;11.88;77.49;99244.16;5041205;28;20053;-48
2023/04/10 09:29:57;;;;;;;0.60;0.40;;;;;;;11.87;77.80;99234.66;5057042;28;20146;-51
2023/04/10 09:32:39;;;;;;;0.90;0.60;;;;;;;11.87;78.57;99224.28;5049020;28;20045;-50
2023/04/10 09:35:07;;;;;;;0.60;0.30;;;;;;;11.91;78.37;99231.13;5056563;28;20687;-54
2023/04/10 09:37:35;;;;;;;0.30;0.30;;;;;;;11.92;78.13;99222.47;5049358;28;20044;-55
2023/04/10 09:40:02;;;;;;;0.50;0.50;;;;;;;11.94;78.25;99218.06;5044890;28;20076;-55
2023/04/10 09:42:31;;;;;;;0.85;0.85;;;;;;;11.98;77.65;99211.94;5054672;28;20049;-52
2023/04/10 09:44:58;;;;;;;0.20;0.10;;;;;;;11.98;78.82;99209.34;5041891;28;20111;-52
2023/04/10 09:47:26;;;;;;;0.50;0.50;;;;;;;11.97;78.13;99192.06;5051897;28;20041;-49
2023/04/10 09:49:54;;;;;;;0.40;0.30;;;;;;;12.01;78.34;99175.53;5057197;28;20053;-51
2023/04/10 09:52:27;;;;;;;0.40;0.40;;;;;;;12.05;78.12;99169.38;5075503;28;20445;-49
2023/04/10 09:54:57;;;;;;;1.02;0.73;;;;;;;12.14;78.22;99170.09;5055833;28;20048;-47
2023/04/10 09:57:27;;;;;;;1.30;0.55;;;;;;;12.20;77.93;99167.34;5072036;28;20056;-49
2023/04/10 09:59:56;;;;;;;0.68;0.60;;;;;;;12.27;78.33;99165.47;5074227;27;20098;-51
2023/04/10 10:02:25;;;;;;;0.45;0.45;;;;;;;12.31;77.52;99162.78;5060669;28;20045;-49
2023/04/10 10:04:52;;;;;;;0.65;0.30;;;;;;;12.39;77.68;99164.31;5066264;28;20114;-51
2023/04/10 10:07:21;;;;;;;0.50;0.47;;;;;;;12.46;78.30;99147.69;5068245;28;20045;-51
2023/04/10 10:09:50;;;;;;;1.02;0.93;;;;;;;12.51;77.68;99145.84;5045538;28;20075;-55
2023/04/10 10:15:00;;;;;;;1.02;0.98;;;;;;;12.84;77.48;99127.66;5055185;28;20395;-55
2023/04/10 10:17:36;;;;;;;5.03;2.35;;;;;;;12.67;77.35;99128.09;5057703;28;20166;-53
2023/04/10 10:20:08;;;;;;;4.00;2.25;;;;;;;12.69;77.44;99122.84;5060418;28;20539;-47
2023/04/10 10:22:36;;;;;;;3.67;2.75;;;;;;;12.71;77.84;99115.88;5061749;28;20079;-56
2023/04/10 10:25:03;;;;;;;2.58;0.63;;;;;;;12.75;78.41;99111.44;5061791;28;20064;-53
2023/04/10 10:27:31;;;;;;;3.08;1.27;;;;;;;12.77;77.81;99120.06;5054691;28;20132;-57
2023/04/10 10:29:59;;;;;;;1.52;1.20;;;;;;;12.82;77.87;99113.00;5045420;28;20735;-56
2023/04/10 10:32:33;;;;;;;2.92;1.30;;;;;;;12.82;76.71;99108.66;5065496;28;20132;-53
2023/04/10 10:35:01;;;;;;;1.73;1.48;;;;;;;12.85;76.97;99108.59;5060774;28;20049;-51
2023/04/10 10:37:29;;;;;;;1.88;1.77;;;;;;;12.82;76.89;99108.66;5069975;28;20071;-52
2023/04/10 10:40:05;;;;;;;2.38;1.27;;;;;;;12.80;76.60;99094.84;5063981;28;20048;-49
2023/04/10 10:42:55;;;;;;;2.38;2.17;;;;;;;12.77;77.43;99079.34;5060609;28;20582;-53
2023/04/10 10:45:30;;;;;;;4.35;0.40;;;;;;;12.74;77.23;99084.63;5061276;28;20048;-55
2023/04/10 10:47:57;;;;;;;1.63;1.30;;;;;;;12.75;76.66;99091.53;5062804;28;20069;-47
2023/04/10 10:50:24;;;;;;;1.75;1.55;;;;;;;12.71;77.92;99080.34;5062933;28;20037;-49
2023/04/10 10:52:52;;;;;;;2.38;1.73;;;;;;;12.75;76.40;99081.13;5063434;28;20159;-50
2023/04/10 10:58:01;;;;;;;1.75;0.47;;;;;;;12.93;77.81;99073.72;5046637;27;20894;-45
2023/04/10 11:03:27;;;;;;;3.63;0.43;;;;;;;13.65;78.33;99061.25;5067134;27;20749;-51
2023/04/10 11:05:57;;;;;;;2.03;0.50;;;;;;;13.99;77.33;99065.38;5040185;28;20076;-53
2023/04/10 11:19:11;;;;;;;1.75;0.85;;;;;;;15.05;74.93;99061.75;5086439;27;20401;-52
2023/04/10 11:22:02;;;;;;;3.42;1.13;;;;;;;14.97;72.79;99048.16;5066077;28;20139;-51
2023/04/10 11:24:58;;;;;;;1.48;0.45;;;;;;;14.82;72.32;99034.78;5056451;28;20068;-58
2023/04/10 11:27:47;;;;;;;4.00;1.40;;;;;;;14.68;71.28;99042.22;5068278;28;20168;-51
2023/04/10 11:30:35;;;;;;;5.95;2.47;;;;;;;14.65;72.16;99022.34;5096440;28;20449;-57
2023/04/10 11:33:03;;;;;;;3.40;0.68;;;;;;;14.78;72.85;99027.97;5100990;28;20093;-53
2023/04/10 11:35:31;;;;;;;4.85;0.88;;;;;;;14.88;72.01;99024.13;5099968;28;20079;-56
2023/04/10 11:38:16;;;;;;;1.73;0.73;;;;;;;14.89;71.46;99023.22;5102669;28;20047;-50
2023/04/10 11:41:01;;;;;;;6.00;1.02;;;;;;;14.97;71.18;99022.09;5085459;28;20069;-57
2023/04/10 11:43:27;;;;;;;1.98;0.60;;;;;;;15.10;71.89;99015.50;5102629;28;20113;-57
2023/04/10 11:46:04;;;;;;;3.55;1.00;;;;;;;15.24;70.83;99014.13;5099856;28;20481;-55
2023/04/10 11:48:32;;;;;;;6.53;0.80;;;;;;;15.18;69.14;99009.13;5101609;28;20418;-57
2023/04/10 11:51:06;;;;;;;3.08;0.70;;;;;;;15.03;67.96;99007.06;5102662;28;20090;-55
2023/04/10 11:53:33;;;;;;;3.95;1.35;;;;;;;15.02;68.08;99000.16;5103908;28;20210;-53
2023/04/10 11:55:59;;;;;;;7.63;1.38;;;;;;;15.19;69.06;99000.44;5110932;28;20047;-56
2023/04/10 11:58:29;;;;;;;6.25;1.45;;;;;;;15.26;67.26;99007.06;5109283;27;20120;-52
2023/04/10 12:06:13;;;;;;;3.83;1.13;;;;;;;15.47;66.11;98994.94;5075238;27;20377;-53
2023/04/10 12:08:44;;;;;;;7.75;1.25;;;;;;;15.43;65.91;98990.75;5037085;28;20049;-53
2023/04/10 12:11:11;;;;;;;5.32;0.93;;;;;;;15.30;64.93;98982.56;5017529;28;20050;-53
2023/04/10 12:13:38;;;;;;;10.00;1.33;;;;;;;15.35;65.92;98980.66;5024682;28;20046;-57
2023/04/10 12:16:07;;;;;;;4.85;1.08;;;;;;;15.22;63.70;98975.06;5023430;28;20056;-56
2023/04/10 12:18:34;;;;;;;10.60;1.20;;;;;;;15.04;62.47;98987.06;5028143;28;20135;-58
2023/04/10 12:21:02;;;;;;;8.18;2.22;;;;;;;14.82;64.04;99058.25;5014569;28;20681;-55
2023/04/10 12:23:31;;;;;;;2.72;0.85;;;;;;;14.31;63.62;99019.19;5030881;28;20417;-50